sensor_id;sensor_type;location;lat;lon;timestamp;temperature;humidity
57108;DHT22;42987;52.916;6.542;2022-09-13T00:01:06;17.60;99.90
57108;DHT22;42987;52.916;6.542;2022-09-13T00:03:32;17.60;99.90
57108;DHT22;42987;52.916;6.542;2022-09-13T00:06:05;17.60;99.90
57108;DHT22;42987;52.916;6.542;2022-09-13T00:08:34;17.60;99.90
57108;DHT22;42987;52.916;6.542;2022-09-13T00:11:00;17.60;99.90
57108;DHT22;42987;52.916;6.542;2022-09-13T00:13:26;17.60;99.90
57108;DHT22;42987;52.916;6.542;2022-09-13T00:15:51;17.60;99.90
57108;DHT22;42987;52.916;6.542;2022-09-13T00:18:18;17.60;99.90
57108;DHT22;42987;52.916;6.542;2022-09-13T00:20:44;17.60;99.90
57108;DHT22;42987;52.916;6.542;2022-09-13T00:23:10;17.60;99.90
57108;DHT22;42987;52.916;6.542;2022-09-13T00:25:36;17.60;99.90
57108;DHT22;42987;52.916;6.542;2022-09-13T00:28:03;17.70;99.90
57108;DHT22;42987;52.916;6.542;2022-09-13T00:30:29;17.60;99.90
57108;DHT22;42987;52.916;6.542;2022-09-13T00:32:55;17.60;99.90
57108;DHT22;42987;52.916;6.542;2022-09-13T00:35:21;17.60;99.90
57108;DHT22;42987;52.916;6.542;2022-09-13T00:37:48;17.60;99.90
57108;DHT22;42987;52.916;6.542;2022-09-13T00:40:14;17.70;99.90
57108;DHT22;42987;52.916;6.542;2022-09-13T00:42:40;17.70;99.90
57108;DHT22;42987;52.916;6.542;2022-09-13T00:47:52;17.60;99.90
57108;DHT22;42987;52.916;6.542;2022-09-13T00:50:33;17.60;99.90
57108;DHT22;42987;52.916;6.542;2022-09-13T00:55:59;17.60;99.90
57108;DHT22;42987;52.916;6.542;2022-09-13T00:58:30;17.60;99.90
57108;DHT22;42987;52.916;6.542;2022-09-13T01:00:59;17.60;99.90
57108;DHT22;42987;52.916;6.542;2022-09-13T01:03:29;17.60;99.90
57108;DHT22;42987;52.916;6.542;2022-09-13T01:06:04;17.60;99.90
57108;DHT22;42987;52.916;6.542;2022-09-13T01:08:32;17.60;99.90
57108;DHT22;42987;52.916;6.542;2022-09-13T01:10:59;17.60;99.90
57108;DHT22;42987;52.916;6.542;2022-09-13T01:13:34;17.60;99.90
57108;DHT22;42987;52.916;6.542;2022-09-13T01:16:03;17.60;99.90
57108;DHT22;42987;52.916;6.542;2022-09-13T01:18:29;17.60;99.90
57108;DHT22;42987;52.916;6.542;2022-09-13T01:26:23;17.50;99.90
57108;DHT22;42987;52.916;6.542;2022-09-13T01:40:16;17.50;99.90
57108;DHT22;42987;52.916;6.542;2022-09-13T01:48:16;17.50;99.90
57108;DHT22;42987;52.916;6.542;2022-09-13T01:51:03;17.50;99.90
57108;DHT22;42987;52.916;6.542;2022-09-13T01:56:38;17.50;99.90
57108;DHT22;42987;52.916;6.542;2022-09-13T02:02:40;17.50;99.90
57108;DHT22;42987;52.916;6.542;2022-09-13T02:04:50;17.50;99.90
57108;DHT22;42987;52.916;6.542;2022-09-13T02:07:39;17.50;99.90
57108;DHT22;42987;52.916;6.542;2022-09-13T02:10:28;17.50;99.90
57108;DHT22;42987;52.916;6.542;2022-09-13T02:12:55;17.50;99.90
57108;DHT22;42987;52.916;6.542;2022-09-13T02:15:33;17.40;99.90
57108;DHT22;42987;52.916;6.542;2022-09-13T02:18:08;17.50;99.90
57108;DHT22;42987;52.916;6.542;2022-09-13T02:20:42;17.40;99.90
57108;DHT22;42987;52.916;6.542;2022-09-13T02:23:13;17.50;99.90
57108;DHT22;42987;52.916;6.542;2022-09-13T02:25:40;17.40;99.90
57108;DHT22;42987;52.916;6.542;2022-09-13T02:28:10;17.40;99.90
57108;DHT22;42987;52.916;6.542;2022-09-13T02:30:40;17.40;99.90
57108;DHT22;42987;52.916;6.542;2022-09-13T02:33:34;17.50;99.90
57108;DHT22;42987;52.916;6.542;2022-09-13T02:36:11;17.40;99.90
57108;DHT22;42987;52.916;6.542;2022-09-13T02:38:43;17.40;99.90
57108;DHT22;42987;52.916;6.542;2022-09-13T02:41:27;17.50;99.90
57108;DHT22;42987;52.916;6.542;2022-09-13T02:44:07;17.40;99.90
57108;DHT22;42987;52.916;6.542;2022-09-13T02:52:46;17.50;99.90
57108;DHT22;42987;52.916;6.542;2022-09-13T02:55:32;17.50;99.90
57108;DHT22;42987;52.916;6.542;2022-09-13T02:58:12;17.50;99.90
57108;DHT22;42987;52.916;6.542;2022-09-13T03:00:42;17.50;99.90
57108;DHT22;42987;52.916;6.542;2022-09-13T03:03:11;17.50;99.90
57108;DHT22;42987;52.916;6.542;2022-09-13T03:05:42;17.50;99.90
57108;DHT22;42987;52.916;6.542;2022-09-13T03:08:11;17.50;99.90
57108;DHT22;42987;52.916;6.542;2022-09-13T03:22:57;17.50;99.90
57108;DHT22;42987;52.916;6.542;2022-09-13T03:26:10;17.50;99.90
57108;DHT22;42987;52.916;6.542;2022-09-13T03:29:07;17.50;99.90
57108;DHT22;42987;52.916;6.542;2022-09-13T03:35:06;17.50;99.90
57108;DHT22;42987;52.916;6.542;2022-09-13T03:37:49;17.50;99.90
57108;DHT22;42987;52.916;6.542;2022-09-13T03:43:24;17.50;99.90
57108;DHT22;42987;52.916;6.542;2022-09-13T03:45:55;17.50;99.90
57108;DHT22;42987;52.916;6.542;2022-09-13T03:48:23;17.50;99.90
57108;DHT22;42987;52.916;6.542;2022-09-13T03:50:50;17.50;99.90
57108;DHT22;42987;52.916;6.542;2022-09-13T03:53:23;17.50;99.90
57108;DHT22;42987;52.916;6.542;2022-09-13T03:55:50;17.50;99.90
57108;DHT22;42987;52.916;6.542;2022-09-13T03:58:18;17.50;99.90
57108;DHT22;42987;52.916;6.542;2022-09-13T04:00:45;17.50;99.90
57108;DHT22;42987;52.916;6.542;2022-09-13T04:03:12;17.50;99.90
57108;DHT22;42987;52.916;6.542;2022-09-13T04:05:38;17.50;99.90
57108;DHT22;42987;52.916;6.542;2022-09-13T04:08:04;17.60;99.90
57108;DHT22;42987;52.916;6.542;2022-09-13T04:10:35;17.60;99.90
57108;DHT22;42987;52.916;6.542;2022-09-13T04:13:02;17.60;99.90
57108;DHT22;42987;52.916;6.542;2022-09-13T04:15:31;17.60;99.90
57108;DHT22;42987;52.916;6.542;2022-09-13T04:17:57;17.60;99.90
57108;DHT22;42987;52.916;6.542;2022-09-13T04:20:22;17.60;99.90
57108;DHT22;42987;52.916;6.542;2022-09-13T04:22:54;17.70;99.90
57108;DHT22;42987;52.916;6.542;2022-09-13T04:25:21;17.70;99.90
57108;DHT22;42987;52.916;6.542;2022-09-13T04:27:47;17.70;99.90
57108;DHT22;42987;52.916;6.542;2022-09-13T04:30:14;17.70;99.90
57108;DHT22;42987;52.916;6.542;2022-09-13T04:32:43;17.70;99.90
57108;DHT22;42987;52.916;6.542;2022-09-13T04:35:12;17.70;99.90
57108;DHT22;42987;52.916;6.542;2022-09-13T04:37:38;17.70;99.90
57108;DHT22;42987;52.916;6.542;2022-09-13T04:40:05;17.80;99.90
57108;DHT22;42987;52.916;6.542;2022-09-13T04:42:35;17.70;99.90
57108;DHT22;42987;52.916;6.542;2022-09-13T04:45:04;17.80;99.90
57108;DHT22;42987;52.916;6.542;2022-09-13T04:47:31;17.70;99.90
57108;DHT22;42987;52.916;6.542;2022-09-13T04:49:57;17.70;99.90
57108;DHT22;42987;52.916;6.542;2022-09-13T04:52:24;17.80;99.90
57108;DHT22;42987;52.916;6.542;2022-09-13T04:54:49;17.80;99.90
57108;DHT22;42987;52.916;6.542;2022-09-13T04:57:16;17.70;99.90
57108;DHT22;42987;52.916;6.542;2022-09-13T04:59:42;17.80;99.90
57108;DHT22;42987;52.916;6.542;2022-09-13T05:02:08;17.80;99.90
57108;DHT22;42987;52.916;6.542;2022-09-13T05:04:34;17.80;99.90
57108;DHT22;42987;52.916;6.542;2022-09-13T05:07:00;17.80;99.90
57108;DHT22;42987;52.916;6.542;2022-09-13T05:09:26;17.80;99.90
57108;DHT22;42987;52.916;6.542;2022-09-13T05:11:52;17.80;99.90
57108;DHT22;42987;52.916;6.542;2022-09-13T05:14:18;17.80;99.90
57108;DHT22;42987;52.916;6.542;2022-09-13T05:16:47;17.80;99.90
57108;DHT22;42987;52.916;6.542;2022-09-13T05:19:13;17.80;99.90
57108;DHT22;42987;52.916;6.542;2022-09-13T05:21:38;17.80;99.90
57108;DHT22;42987;52.916;6.542;2022-09-13T05:24:04;17.80;99.90
57108;DHT22;42987;52.916;6.542;2022-09-13T05:26:30;17.80;99.90
57108;DHT22;42987;52.916;6.542;2022-09-13T05:28:58;17.90;99.90
57108;DHT22;42987;52.916;6.542;2022-09-13T05:31:35;17.80;99.90
57108;DHT22;42987;52.916;6.542;2022-09-13T05:34:10;17.80;99.90
57108;DHT22;42987;52.916;6.542;2022-09-13T05:36:39;17.80;99.90
57108;DHT22;42987;52.916;6.542;2022-09-13T05:39:14;17.90;99.90
57108;DHT22;42987;52.916;6.542;2022-09-13T05:41:42;17.90;99.90
57108;DHT22;42987;52.916;6.542;2022-09-13T05:44:08;17.80;99.90
57108;DHT22;42987;52.916;6.542;2022-09-13T05:46:34;17.90;99.90
57108;DHT22;42987;52.916;6.542;2022-09-13T05:49:00;17.80;99.90
57108;DHT22;42987;52.916;6.542;2022-09-13T05:51:26;17.90;99.90
57108;DHT22;42987;52.916;6.542;2022-09-13T05:53:53;17.90;99.90
57108;DHT22;42987;52.916;6.542;2022-09-13T05:56:22;17.90;99.90
57108;DHT22;42987;52.916;6.542;2022-09-13T05:58:50;17.90;99.90
57108;DHT22;42987;52.916;6.542;2022-09-13T06:01:20;17.90;99.90
57108;DHT22;42987;52.916;6.542;2022-09-13T06:03:47;17.90;99.90
57108;DHT22;42987;52.916;6.542;2022-09-13T06:06:17;17.90;99.90
57108;DHT22;42987;52.916;6.542;2022-09-13T06:08:43;17.90;99.90
57108;DHT22;42987;52.916;6.542;2022-09-13T06:11:11;17.90;99.90
57108;DHT22;42987;52.916;6.542;2022-09-13T06:13:38;17.90;99.90
57108;DHT22;42987;52.916;6.542;2022-09-13T06:16:09;17.80;99.90
57108;DHT22;42987;52.916;6.542;2022-09-13T06:18:37;17.80;99.90
57108;DHT22;42987;52.916;6.542;2022-09-13T06:21:09;17.80;99.90
57108;DHT22;42987;52.916;6.542;2022-09-13T06:23:38;17.80;99.90
57108;DHT22;42987;52.916;6.542;2022-09-13T06:26:12;17.80;99.90
57108;DHT22;42987;52.916;6.542;2022-09-13T06:28:39;17.90;99.90
57108;DHT22;42987;52.916;6.542;2022-09-13T06:31:07;17.80;99.90
57108;DHT22;42987;52.916;6.542;2022-09-13T06:33:35;17.80;99.90
57108;DHT22;42987;52.916;6.542;2022-09-13T06:36:07;17.80;99.90
57108;DHT22;42987;52.916;6.542;2022-09-13T06:38:33;17.70;99.90
57108;DHT22;42987;52.916;6.542;2022-09-13T06:41:19;17.70;99.90
57108;DHT22;42987;52.916;6.542;2022-09-13T06:43:47;17.70;99.90
57108;DHT22;42987;52.916;6.542;2022-09-13T06:46:19;17.60;99.90
57108;DHT22;42987;52.916;6.542;2022-09-13T06:48:46;17.60;99.90
57108;DHT22;42987;52.916;6.542;2022-09-13T06:51:15;17.60;99.90
57108;DHT22;42987;52.916;6.542;2022-09-13T06:53:42;17.60;99.90
57108;DHT22;42987;52.916;6.542;2022-09-13T06:56:11;17.60;99.90
57108;DHT22;42987;52.916;6.542;2022-09-13T06:58:38;17.60;99.90
57108;DHT22;42987;52.916;6.542;2022-09-13T07:01:12;17.70;99.90
57108;DHT22;42987;52.916;6.542;2022-09-13T07:03:44;17.70;99.90
57108;DHT22;42987;52.916;6.542;2022-09-13T07:06:13;17.70;99.90
57108;DHT22;42987;52.916;6.542;2022-09-13T07:08:40;17.80;99.90
57108;DHT22;42987;52.916;6.542;2022-09-13T07:11:07;17.80;99.90
57108;DHT22;42987;52.916;6.542;2022-09-13T07:13:34;17.80;99.90
57108;DHT22;42987;52.916;6.542;2022-09-13T07:16:05;17.80;99.90
57108;DHT22;42987;52.916;6.542;2022-09-13T07:18:38;17.90;99.90
57108;DHT22;42987;52.916;6.542;2022-09-13T07:21:09;17.90;99.90
57108;DHT22;42987;52.916;6.542;2022-09-13T07:23:39;18.00;99.90
57108;DHT22;42987;52.916;6.542;2022-09-13T07:26:08;18.00;99.90
57108;DHT22;42987;52.916;6.542;2022-09-13T07:28:40;18.10;99.90
57108;DHT22;42987;52.916;6.542;2022-09-13T07:31:17;18.10;99.90
57108;DHT22;42987;52.916;6.542;2022-09-13T07:33:45;18.20;99.90
57108;DHT22;42987;52.916;6.542;2022-09-13T07:36:12;18.20;99.90
57108;DHT22;42987;52.916;6.542;2022-09-13T07:38:41;18.20;99.90
57108;DHT22;42987;52.916;6.542;2022-09-13T07:41:11;18.30;99.90
57108;DHT22;42987;52.916;6.542;2022-09-13T07:43:38;18.30;99.90
57108;DHT22;42987;52.916;6.542;2022-09-13T07:46:09;18.30;99.90
57108;DHT22;42987;52.916;6.542;2022-09-13T07:48:37;18.40;99.90
57108;DHT22;42987;52.916;6.542;2022-09-13T07:51:09;18.50;99.90
57108;DHT22;42987;52.916;6.542;2022-09-13T07:53:36;18.60;99.90
57108;DHT22;42987;52.916;6.542;2022-09-13T07:56:04;18.80;99.90
57108;DHT22;42987;52.916;6.542;2022-09-13T07:58:35;18.90;99.90
57108;DHT22;42987;52.916;6.542;2022-09-13T08:03:33;19.10;99.90
57108;DHT22;42987;52.916;6.542;2022-09-13T08:05:59;19.10;99.90
57108;DHT22;42987;52.916;6.542;2022-09-13T08:08:29;18.90;99.90
57108;DHT22;42987;52.916;6.542;2022-09-13T08:10:56;18.90;99.90
57108;DHT22;42987;52.916;6.542;2022-09-13T08:13:22;18.70;99.90
57108;DHT22;42987;52.916;6.542;2022-09-13T08:15:48;18.70;99.90
57108;DHT22;42987;52.916;6.542;2022-09-13T08:18:18;18.60;99.90
57108;DHT22;42987;52.916;6.542;2022-09-13T08:20:44;18.50;99.90
57108;DHT22;42987;52.916;6.542;2022-09-13T08:23:13;18.50;99.90
57108;DHT22;42987;52.916;6.542;2022-09-13T08:25:39;18.60;99.90
57108;DHT22;42987;52.916;6.542;2022-09-13T08:28:13;18.60;99.90
57108;DHT22;42987;52.916;6.542;2022-09-13T08:30:42;18.80;99.90
57108;DHT22;42987;52.916;6.542;2022-09-13T08:33:12;18.90;99.90
57108;DHT22;42987;52.916;6.542;2022-09-13T08:35:38;19.10;99.90
57108;DHT22;42987;52.916;6.542;2022-09-13T08:38:26;19.40;99.90
57108;DHT22;42987;52.916;6.542;2022-09-13T08:40:57;19.70;99.90
57108;DHT22;42987;52.916;6.542;2022-09-13T08:46:00;20.20;99.90
57108;DHT22;42987;52.916;6.542;2022-09-13T08:48:50;20.30;99.90
57108;DHT22;42987;52.916;6.542;2022-09-13T08:54:02;20.10;99.90
57108;DHT22;42987;52.916;6.542;2022-09-13T08:56:42;19.90;99.90
57108;DHT22;42987;52.916;6.542;2022-09-13T09:04:53;20.00;99.90
57108;DHT22;42987;52.916;6.542;2022-09-13T09:07:26;20.20;99.90
57108;DHT22;42987;52.916;6.542;2022-09-13T09:10:34;20.30;99.90
57108;DHT22;42987;52.916;6.542;2022-09-13T09:15:48;20.50;99.90
57108;DHT22;42987;52.916;6.542;2022-09-13T09:18:34;20.50;99.90
57108;DHT22;42987;52.916;6.542;2022-09-13T09:21:02;20.40;99.90
57108;DHT22;42987;52.916;6.542;2022-09-13T09:23:39;20.20;99.90
57108;DHT22;42987;52.916;6.542;2022-09-13T09:26:24;20.20;99.90
57108;DHT22;42987;52.916;6.542;2022-09-13T09:28:57;20.30;99.90
57108;DHT22;42987;52.916;6.542;2022-09-13T09:31:39;20.50;99.90
57108;DHT22;42987;52.916;6.542;2022-09-13T09:37:21;20.70;99.90
57108;DHT22;42987;52.916;6.542;2022-09-13T09:39:48;20.80;99.90
57108;DHT22;42987;52.916;6.542;2022-09-13T09:42:23;20.90;99.90
57108;DHT22;42987;52.916;6.542;2022-09-13T09:44:56;21.10;99.90
57108;DHT22;42987;52.916;6.542;2022-09-13T09:50:37;21.00;99.90
57108;DHT22;42987;52.916;6.542;2022-09-13T09:53:13;20.80;99.90
57108;DHT22;42987;52.916;6.542;2022-09-13T09:58:42;20.90;99.90
57108;DHT22;42987;52.916;6.542;2022-09-13T10:01:29;21.00;99.90
57108;DHT22;42987;52.916;6.542;2022-09-13T10:04:17;21.20;99.90
57108;DHT22;42987;52.916;6.542;2022-09-13T10:06:47;21.30;99.90
57108;DHT22;42987;52.916;6.542;2022-09-13T10:09:17;21.40;99.90
57108;DHT22;42987;52.916;6.542;2022-09-13T10:11:49;21.40;99.90
57108;DHT22;42987;52.916;6.542;2022-09-13T10:14:51;21.30;99.90
57108;DHT22;42987;52.916;6.542;2022-09-13T10:17:30;21.10;99.90
57108;DHT22;42987;52.916;6.542;2022-09-13T10:20:24;21.20;99.90
57108;DHT22;42987;52.916;6.542;2022-09-13T10:26:08;21.40;99.90
57108;DHT22;42987;52.916;6.542;2022-09-13T10:28:57;21.50;99.90
57108;DHT22;42987;52.916;6.542;2022-09-13T10:31:50;21.70;99.90
57108;DHT22;42987;52.916;6.542;2022-09-13T10:34:36;21.80;99.90
57108;DHT22;42987;52.916;6.542;2022-09-13T10:37:26;22.10;99.90
57108;DHT22;42987;52.916;6.542;2022-09-13T10:42:57;21.90;99.90
57108;DHT22;42987;52.916;6.542;2022-09-13T10:45:29;21.80;99.90
57108;DHT22;42987;52.916;6.542;2022-09-13T10:48:22;21.80;99.90
57108;DHT22;42987;52.916;6.542;2022-09-13T10:51:07;22.00;99.90
57108;DHT22;42987;52.916;6.542;2022-09-13T10:53:44;22.10;99.90
57108;DHT22;42987;52.916;6.542;2022-09-13T10:56:22;22.30;99.90
57108;DHT22;42987;52.916;6.542;2022-09-13T10:58:50;22.40;98.90
57108;DHT22;42987;52.916;6.542;2022-09-13T11:07:25;21.80;99.90
57108;DHT22;42987;52.916;6.542;2022-09-13T11:10:10;21.60;99.90
57108;DHT22;42987;52.916;6.542;2022-09-13T11:18:12;21.80;99.90
57108;DHT22;42987;52.916;6.542;2022-09-13T11:24:02;22.00;99.90
57108;DHT22;42987;52.916;6.542;2022-09-13T11:29:25;22.30;99.90
57108;DHT22;42987;52.916;6.542;2022-09-13T11:32:03;22.40;99.60
57108;DHT22;42987;52.916;6.542;2022-09-13T11:37:45;22.50;99.90
57108;DHT22;42987;52.916;6.542;2022-09-13T11:40:40;22.50;96.30
57108;DHT22;42987;52.916;6.542;2022-09-13T11:49:33;22.10;96.70
57108;DHT22;42987;52.916;6.542;2022-09-13T11:55:23;21.90;99.90
57108;DHT22;42987;52.916;6.542;2022-09-13T11:57:57;22.00;99.90
57108;DHT22;42987;52.916;6.542;2022-09-13T12:00:26;22.10;99.90
57108;DHT22;42987;52.916;6.542;2022-09-13T12:03:27;22.20;99.90
57108;DHT22;42987;52.916;6.542;2022-09-13T12:06:04;22.20;99.90
57108;DHT22;42987;52.916;6.542;2022-09-13T12:08:35;22.20;99.90
57108;DHT22;42987;52.916;6.542;2022-09-13T12:11:09;22.20;99.90
57108;DHT22;42987;52.916;6.542;2022-09-13T12:14:06;22.10;99.90
57108;DHT22;42987;52.916;6.542;2022-09-13T12:16:43;22.00;99.90
57108;DHT22;42987;52.916;6.542;2022-09-13T12:19:25;22.10;98.60
57108;DHT22;42987;52.916;6.542;2022-09-13T12:21:54;22.10;99.00
57108;DHT22;42987;52.916;6.542;2022-09-13T12:24:37;22.10;99.90
57108;DHT22;42987;52.916;6.542;2022-09-13T12:30:21;22.20;99.90
57108;DHT22;42987;52.916;6.542;2022-09-13T12:32:41;22.10;99.90
57108;DHT22;42987;52.916;6.542;2022-09-13T12:41:17;21.90;99.80
57108;DHT22;42987;52.916;6.542;2022-09-13T12:49:24;21.90;96.70
57108;DHT22;42987;52.916;6.542;2022-09-13T12:57:52;22.10;96.00
57108;DHT22;42987;52.916;6.542;2022-09-13T13:00:25;22.10;95.00
57108;DHT22;42987;52.916;6.542;2022-09-13T13:05:29;22.20;94.50
57108;DHT22;42987;52.916;6.542;2022-09-13T13:08:16;22.10;94.40
57108;DHT22;42987;52.916;6.542;2022-09-13T13:11:05;22.10;95.70
57108;DHT22;42987;52.916;6.542;2022-09-13T13:13:42;22.10;96.50
57108;DHT22;42987;52.916;6.542;2022-09-13T13:16:32;22.20;93.50
57108;DHT22;42987;52.916;6.542;2022-09-13T13:30:52;22.20;97.00
57108;DHT22;42987;52.916;6.542;2022-09-13T13:33:27;22.00;94.70
57108;DHT22;42987;52.916;6.542;2022-09-13T13:36:24;21.80;94.40
57108;DHT22;42987;52.916;6.542;2022-09-13T13:38:56;21.70;95.40
57108;DHT22;42987;52.916;6.542;2022-09-13T13:53:13;21.80;95.50
57108;DHT22;42987;52.916;6.542;2022-09-13T13:55:44;21.80;95.80
57108;DHT22;42987;52.916;6.542;2022-09-13T13:58:32;21.70;97.50
57108;DHT22;42987;52.916;6.542;2022-09-13T14:01:04;21.70;96.70
57108;DHT22;42987;52.916;6.542;2022-09-13T14:04:08;21.70;99.40
57108;DHT22;42987;52.916;6.542;2022-09-13T14:10:25;21.70;96.20
57108;DHT22;42987;52.916;6.542;2022-09-13T14:16:30;21.50;99.60
57108;DHT22;42987;52.916;6.542;2022-09-13T14:19:24;21.50;99.10
57108;DHT22;42987;52.916;6.542;2022-09-13T14:22:18;21.50;99.90
57108;DHT22;42987;52.916;6.542;2022-09-13T14:25:12;21.40;96.90
57108;DHT22;42987;52.916;6.542;2022-09-13T14:27:56;21.30;96.10
57108;DHT22;42987;52.916;6.542;2022-09-13T14:32:53;21.00;99.40
57108;DHT22;42987;52.916;6.542;2022-09-13T14:35:32;21.00;97.80
57108;DHT22;42987;52.916;6.542;2022-09-13T14:38:24;20.90;97.50
57108;DHT22;42987;52.916;6.542;2022-09-13T14:41:02;20.90;97.40
57108;DHT22;42987;52.916;6.542;2022-09-13T14:43:45;20.80;98.70
57108;DHT22;42987;52.916;6.542;2022-09-13T14:46:27;20.70;97.80
57108;DHT22;42987;52.916;6.542;2022-09-13T14:49:09;20.70;98.30
57108;DHT22;42987;52.916;6.542;2022-09-13T14:51:49;20.70;99.80
57108;DHT22;42987;52.916;6.542;2022-09-13T14:54:37;20.70;99.90
57108;DHT22;42987;52.916;6.542;2022-09-13T14:57:09;20.70;99.80
57108;DHT22;42987;52.916;6.542;2022-09-13T14:59:43;20.70;99.50
57108;DHT22;42987;52.916;6.542;2022-09-13T15:02:22;20.70;98.50
57108;DHT22;42987;52.916;6.542;2022-09-13T15:04:52;20.80;97.80
57108;DHT22;42987;52.916;6.542;2022-09-13T15:07:51;20.80;99.90
57108;DHT22;42987;52.916;6.542;2022-09-13T15:18:04;20.90;99.90
57108;DHT22;42987;52.916;6.542;2022-09-13T15:23:16;20.70;97.60
57108;DHT22;42987;52.916;6.542;2022-09-13T15:28:25;20.50;99.30
57108;DHT22;42987;52.916;6.542;2022-09-13T15:30:51;20.40;99.90
57108;DHT22;42987;52.916;6.542;2022-09-13T15:33:21;20.40;98.70
57108;DHT22;42987;52.916;6.542;2022-09-13T15:35:48;20.30;99.00
57108;DHT22;42987;52.916;6.542;2022-09-13T15:38:27;20.30;99.10
57108;DHT22;42987;52.916;6.542;2022-09-13T15:41:12;20.30;98.80
57108;DHT22;42987;52.916;6.542;2022-09-13T15:43:38;20.30;99.90
57108;DHT22;42987;52.916;6.542;2022-09-13T15:46:04;20.20;99.50
57108;DHT22;42987;52.916;6.542;2022-09-13T15:48:37;20.10;99.00
57108;DHT22;42987;52.916;6.542;2022-09-13T15:51:09;20.10;98.60
57108;DHT22;42987;52.916;6.542;2022-09-13T15:53:40;20.10;98.70
57108;DHT22;42987;52.916;6.542;2022-09-13T15:56:08;20.00;98.90
57108;DHT22;42987;52.916;6.542;2022-09-13T15:58:35;20.00;99.90
57108;DHT22;42987;52.916;6.542;2022-09-13T16:01:04;20.00;99.90
57108;DHT22;42987;52.916;6.542;2022-09-13T16:03:33;20.00;99.90
57108;DHT22;42987;52.916;6.542;2022-09-13T16:05:59;20.00;99.90
57108;DHT22;42987;52.916;6.542;2022-09-13T16:08:24;19.90;99.90
57108;DHT22;42987;52.916;6.542;2022-09-13T16:10:50;19.90;99.80
57108;DHT22;42987;52.916;6.542;2022-09-13T16:13:16;19.80;99.60
57108;DHT22;42987;52.916;6.542;2022-09-13T16:15:42;19.80;99.90
57108;DHT22;42987;52.916;6.542;2022-09-13T16:18:08;19.70;99.90
57108;DHT22;42987;52.916;6.542;2022-09-13T16:20:37;19.60;99.90
57108;DHT22;42987;52.916;6.542;2022-09-13T16:23:03;19.60;99.90
57108;DHT22;42987;52.916;6.542;2022-09-13T16:25:29;19.50;99.90
57108;DHT22;42987;52.916;6.542;2022-09-13T16:27:55;19.50;99.90
57108;DHT22;42987;52.916;6.542;2022-09-13T16:30:21;19.40;99.90
57108;DHT22;42987;52.916;6.542;2022-09-13T16:32:48;19.40;99.90
57108;DHT22;42987;52.916;6.542;2022-09-13T16:35:14;19.30;99.90
57108;DHT22;42987;52.916;6.542;2022-09-13T16:37:41;19.30;99.90
57108;DHT22;42987;52.916;6.542;2022-09-13T16:40:08;19.20;99.90
57108;DHT22;42987;52.916;6.542;2022-09-13T16:42:37;19.10;99.90
57108;DHT22;42987;52.916;6.542;2022-09-13T16:45:07;19.10;99.90
57108;DHT22;42987;52.916;6.542;2022-09-13T16:47:33;19.10;99.90
57108;DHT22;42987;52.916;6.542;2022-09-13T16:50:09;19.00;99.90
57108;DHT22;42987;52.916;6.542;2022-09-13T16:52:35;19.00;99.90
57108;DHT22;42987;52.916;6.542;2022-09-13T16:55:02;18.90;99.90
57108;DHT22;42987;52.916;6.542;2022-09-13T16:57:28;18.80;99.90
57108;DHT22;42987;52.916;6.542;2022-09-13T16:59:55;18.80;99.90
57108;DHT22;42987;52.916;6.542;2022-09-13T17:02:24;18.80;99.90
57108;DHT22;42987;52.916;6.542;2022-09-13T17:04:49;18.70;99.90
57108;DHT22;42987;52.916;6.542;2022-09-13T17:07:15;18.60;99.90
57108;DHT22;42987;52.916;6.542;2022-09-13T17:09:41;18.60;99.90
57108;DHT22;42987;52.916;6.542;2022-09-13T17:12:10;18.50;99.90
57108;DHT22;42987;52.916;6.542;2022-09-13T17:14:40;18.50;99.90
57108;DHT22;42987;52.916;6.542;2022-09-13T17:17:14;18.40;99.90
57108;DHT22;42987;52.916;6.542;2022-09-13T17:19:41;18.30;99.90
57108;DHT22;42987;52.916;6.542;2022-09-13T17:22:09;18.30;99.90
57108;DHT22;42987;52.916;6.542;2022-09-13T17:24:36;18.20;99.90
57108;DHT22;42987;52.916;6.542;2022-09-13T17:27:03;18.10;99.90
57108;DHT22;42987;52.916;6.542;2022-09-13T17:29:34;18.10;99.90
57108;DHT22;42987;52.916;6.542;2022-09-13T17:32:02;18.00;99.90
57108;DHT22;42987;52.916;6.542;2022-09-13T17:34:28;18.00;99.90
57108;DHT22;42987;52.916;6.542;2022-09-13T17:36:56;17.90;99.90
57108;DHT22;42987;52.916;6.542;2022-09-13T17:39:22;17.90;99.90
57108;DHT22;42987;52.916;6.542;2022-09-13T17:41:48;17.90;99.90
57108;DHT22;42987;52.916;6.542;2022-09-13T17:44:16;17.80;99.90
57108;DHT22;42987;52.916;6.542;2022-09-13T17:46:42;17.70;99.90
57108;DHT22;42987;52.916;6.542;2022-09-13T17:49:08;17.70;99.90
57108;DHT22;42987;52.916;6.542;2022-09-13T17:51:34;17.60;99.90
57108;DHT22;42987;52.916;6.542;2022-09-13T17:54:02;17.50;99.90
57108;DHT22;42987;52.916;6.542;2022-09-13T17:56:31;17.50;99.90
57108;DHT22;42987;52.916;6.542;2022-09-13T17:59:11;17.50;99.90
57108;DHT22;42987;52.916;6.542;2022-09-13T18:01:40;17.40;99.90
57108;DHT22;42987;52.916;6.542;2022-09-13T18:04:07;17.30;99.90
57108;DHT22;42987;52.916;6.542;2022-09-13T18:06:34;17.20;99.90
57108;DHT22;42987;52.916;6.542;2022-09-13T18:09:00;17.20;99.90
57108;DHT22;42987;52.916;6.542;2022-09-13T18:11:26;17.20;99.90
57108;DHT22;42987;52.916;6.542;2022-09-13T18:13:55;17.10;99.90
57108;DHT22;42987;52.916;6.542;2022-09-13T18:16:28;17.00;99.90
57108;DHT22;42987;52.916;6.542;2022-09-13T18:18:54;16.90;99.90
57108;DHT22;42987;52.916;6.542;2022-09-13T18:21:23;16.90;99.90
57108;DHT22;42987;52.916;6.542;2022-09-13T18:23:54;16.90;99.90
57108;DHT22;42987;52.916;6.542;2022-09-13T18:26:24;16.80;99.90
57108;DHT22;42987;52.916;6.542;2022-09-13T18:28:54;16.70;99.90
57108;DHT22;42987;52.916;6.542;2022-09-13T18:31:21;16.70;99.90
57108;DHT22;42987;52.916;6.542;2022-09-13T18:34:00;16.70;99.90
57108;DHT22;42987;52.916;6.542;2022-09-13T18:36:28;16.60;99.90
57108;DHT22;42987;52.916;6.542;2022-09-13T18:38:55;16.50;99.90
57108;DHT22;42987;52.916;6.542;2022-09-13T18:41:35;16.50;99.90
57108;DHT22;42987;52.916;6.542;2022-09-13T18:44:02;16.40;99.90
57108;DHT22;42987;52.916;6.542;2022-09-13T18:46:38;16.30;99.90
57108;DHT22;42987;52.916;6.542;2022-09-13T18:49:05;16.30;99.90
57108;DHT22;42987;52.916;6.542;2022-09-13T18:51:40;16.20;99.90
57108;DHT22;42987;52.916;6.542;2022-09-13T18:54:15;16.10;99.90
57108;DHT22;42987;52.916;6.542;2022-09-13T18:56:43;16.10;99.90
57108;DHT22;42987;52.916;6.542;2022-09-13T18:59:12;16.00;99.90
57108;DHT22;42987;52.916;6.542;2022-09-13T19:01:40;16.00;99.90
57108;DHT22;42987;52.916;6.542;2022-09-13T19:04:13;16.00;99.90
57108;DHT22;42987;52.916;6.542;2022-09-13T19:06:42;16.00;99.90
57108;DHT22;42987;52.916;6.542;2022-09-13T19:09:09;15.90;99.90
57108;DHT22;42987;52.916;6.542;2022-09-13T19:11:41;15.90;99.90